createdAt,value
2019-05-16T00:03:12.865Z,44.33
2019-05-16T00:08:15.319Z,44.54
2019-05-16T00:13:18.578Z,44.45
2019-05-16T00:18:20.247Z,44.99
2019-05-16T00:23:22.701Z,45.38
2019-05-16T00:28:25.169Z,45.56
2019-05-16T00:33:28.656Z,45.63
2019-05-16T00:38:30.089Z,45.17
2019-05-16T00:43:32.528Z,45.91
2019-05-16T00:48:34.987Z,45.62
2019-05-16T00:53:38.233Z,46.03
2019-05-16T00:58:39.921Z,45.83
2019-05-16T01:03:42.378Z,46.39
2019-05-16T01:08:44.855Z,46.33
2019-05-16T01:13:48.755Z,46.39
2019-05-16T01:18:49.777Z,46.25
2019-05-16T01:23:52.239Z,46.66
2019-05-16T01:28:54.713Z,46.48
2019-05-16T01:33:58.379Z,46.92
2019-05-16T01:38:59.651Z,46.69
2019-05-16T01:44:02.100Z,47.17
2019-05-16T01:49:04.565Z,47.34
2019-05-16T01:54:08.746Z,47.48
2019-05-16T01:59:09.479Z,47.49
2019-05-16T02:04:12.401Z,47.05
2019-05-16T02:09:14.389Z,47.14
2019-05-16T02:14:17.709Z,47.92
2019-05-16T02:19:19.332Z,47.68
2019-05-16T02:24:21.794Z,47.54
2019-05-16T02:29:24.257Z,47.82
2019-05-16T02:34:26.705Z,48.41
2019-05-16T02:39:30.483Z,49.18
2019-05-16T02:44:32.202Z,49.10
2019-05-16T02:49:34.437Z,49.85
2019-05-16T02:54:36.552Z,49.97
2019-05-16T02:59:41.628Z,50.98
2019-05-16T03:04:44.296Z,50.75
2019-05-16T03:09:43.906Z,50.81
2019-05-16T03:14:46.362Z,50.71
2019-05-16T03:19:51.029Z,50.00
2019-05-16T03:24:51.617Z,49.25
2019-05-16T03:29:53.749Z,48.78
2019-05-16T03:34:56.206Z,48.49
2019-05-16T03:40:00.485Z,48.79
2019-05-16T03:45:02.299Z,49.01
2019-05-16T03:50:03.585Z,49.53
2019-05-16T03:55:06.038Z,49.64
2019-05-16T04:00:11.409Z,50.14
2019-05-16T04:05:11.571Z,50.10
2019-05-16T04:10:13.567Z,49.36
2019-05-16T04:15:16.039Z,49.22
2019-05-16T04:20:21.250Z,48.98
2019-05-16T04:25:21.833Z,49.14
2019-05-16T04:30:23.450Z,49.01
2019-05-16T04:35:25.912Z,48.82
2019-05-16T04:40:30.977Z,48.60
2019-05-16T04:45:31.793Z,48.17
2019-05-16T04:50:33.286Z,48.30
2019-05-16T04:55:35.746Z,48.23
2019-05-16T05:00:38.200Z,47.91
2019-05-16T05:05:41.369Z,47.36
2019-05-16T05:10:43.107Z,46.68
2019-05-16T05:15:45.563Z,46.62
2019-05-16T05:20:48.030Z,46.31
2019-05-16T05:25:51.248Z,45.84
2019-05-16T05:30:52.965Z,45.89
2019-05-16T05:35:55.430Z,45.54
2019-05-16T05:41:00.097Z,45.40
2019-05-16T05:46:00.920Z,44.79
2019-05-16T05:51:02.962Z,44.83
2019-05-16T05:56:05.413Z,44.15
2019-05-16T06:01:07.881Z,43.45
2019-05-16T06:06:10.727Z,42.22
2019-05-16T06:11:12.817Z,41.36
2019-05-16T06:16:15.261Z,40.94
2019-05-16T06:21:20.068Z,39.18
2019-05-16T06:26:20.571Z,39.33
2019-05-16T06:31:22.653Z,37.92
2019-05-16T06:36:25.112Z,37.50
2019-05-16T06:41:27.567Z,37.23
2019-05-16T06:46:30.677Z,35.56
2019-05-16T06:51:32.499Z,35.79
2019-05-16T06:56:34.954Z,34.17
2019-05-16T07:01:37.402Z,32.19
2019-05-16T07:06:54.890Z,30.89
2019-05-16T07:11:42.324Z,29.41
2019-05-16T07:16:44.769Z,28.89
2019-05-16T07:21:47.221Z,29.33
2019-05-16T07:26:50.256Z,29.33
2019-05-16T07:31:52.554Z,28.61
2019-05-16T07:36:54.687Z,28.83
2019-05-16T07:41:57.154Z,28.78
2019-05-16T07:47:01.033Z,29.52
2019-05-16T07:52:02.219Z,28.61
2019-05-16T07:57:18.531Z,27.59
2019-05-16T08:02:07.053Z,25.89
2019-05-16T08:07:10.794Z,26.47
2019-05-16T08:12:12.031Z,24.89
2019-05-16T08:17:14.495Z,23.03
2019-05-16T08:22:16.963Z,20.73
2019-05-16T08:27:20.812Z,20.70
2019-05-16T08:32:22.964Z,19.73
2019-05-16T08:37:36.893Z,19.68
2019-05-16T08:42:26.851Z,21.25
2019-05-16T08:47:32.180Z,20.25
2019-05-16T08:52:31.871Z,14.36
2019-05-16T08:57:34.209Z,16.84
2019-05-16T09:02:37.041Z,12.10
2019-05-16T09:07:39.119Z,9.60
2019-05-16T09:12:41.585Z,14.42
2019-05-16T09:17:44.060Z,16.52
2019-05-16T09:22:48.074Z,15.94
2019-05-16T09:27:48.936Z,15.40
2019-05-16T09:32:51.404Z,14.01
2019-05-16T09:37:53.891Z,17.12
2019-05-16T09:42:56.915Z,16.93
2019-05-16T09:47:58.798Z,19.13
2019-05-16T09:53:01.303Z,17.79
2019-05-16T09:58:03.755Z,18.36
2019-05-16T10:03:07.157Z,12.88
2019-05-16T10:08:08.746Z,13.64
2019-05-16T10:13:11.137Z,13.25
2019-05-16T10:18:13.594Z,15.87
2019-05-16T10:23:18.148Z,18.06
2019-05-16T10:28:20.084Z,19.10
2019-05-16T10:33:20.986Z,22.50
2019-05-16T10:38:23.417Z,23.04
2019-05-16T10:43:26.495Z,22.59
2019-05-16T10:48:28.333Z,21.97
2019-05-16T10:53:58.084Z,19.87
2019-05-16T10:58:37.992Z,20.01
2019-05-16T11:03:35.699Z,20.55
2019-05-16T11:08:39.656Z,20.81
2019-05-16T11:13:40.721Z,21.48
2019-05-16T11:18:43.182Z,22.34
2019-05-16T11:23:47.097Z,22.21
2019-05-16T11:28:49.039Z,20.83
2019-05-16T11:33:50.560Z,19.91
2019-05-16T11:38:57.318Z,18.79
2019-05-16T11:43:56.888Z,18.57
2019-05-16T11:48:57.946Z,18.23
2019-05-16T11:54:00.433Z,14.22
2019-05-16T11:59:02.906Z,13.14
2019-05-16T12:04:07.797Z,8.50
2019-05-16T12:09:07.862Z,18.16
2019-05-16T12:14:10.326Z,18.98
2019-05-16T12:19:12.781Z,16.99
2019-05-16T12:24:29.271Z,21.83
2019-05-16T12:29:17.738Z,23.15
2019-05-16T12:34:20.191Z,23.93
2019-05-16T12:39:22.660Z,24.69
2019-05-16T12:44:26.913Z,22.08
2019-05-16T12:49:27.567Z,17.94
2019-05-16T12:54:30.029Z,19.61
2019-05-16T12:59:32.498Z,19.19
2019-05-16T13:04:37.318Z,18.81
2019-05-16T13:09:37.429Z,22.53
2019-05-16T13:14:40.527Z,23.83
2019-05-16T13:19:44.701Z,24.16
2019-05-16T13:24:47.694Z,26.15
2019-05-16T13:29:47.772Z,25.60
2019-05-16T13:34:49.746Z,25.82
2019-05-16T13:39:52.214Z,26.16
2019-05-16T13:44:54.697Z,25.46
2019-05-16T13:49:57.170Z,24.09
2019-05-16T13:54:59.765Z,24.77
2019-05-16T14:00:02.232Z,25.07
2019-05-16T14:05:04.682Z,26.90
2019-05-16T14:10:07.248Z,26.39
2019-05-16T14:15:09.890Z,25.68
2019-05-16T14:20:14.927Z,27.37
2019-05-16T14:25:14.905Z,28.42
2019-05-16T14:30:17.909Z,29.93
2019-05-16T14:35:19.856Z,30.06
2019-05-16T14:40:22.428Z,30.64
2019-05-16T14:45:26.371Z,31.64
2019-05-16T14:50:27.799Z,31.00
2019-05-16T14:55:29.824Z,31.84
2019-05-16T15:00:32.305Z,30.83
2019-05-16T15:05:41.853Z,30.12
2019-05-16T15:10:37.730Z,31.23
2019-05-16T15:15:39.860Z,31.11
2019-05-16T15:20:42.322Z,30.37
2019-05-16T15:25:44.787Z,31.13
2019-05-16T15:30:47.259Z,30.75
2019-05-16T15:35:49.733Z,30.85
2019-05-16T15:40:52.197Z,32.77
2019-05-16T15:45:57.854Z,32.41
2019-05-16T15:50:59.793Z,34.12
2019-05-16T15:55:59.595Z,33.74
2019-05-16T16:01:02.102Z,34.32
2019-05-16T16:06:06.829Z,34.80
2019-05-16T16:11:07.564Z,35.85
2019-05-16T16:16:10.793Z,36.04
2019-05-16T16:21:12.065Z,36.71
2019-05-16T16:26:14.559Z,37.26
2019-05-16T16:31:17.079Z,37.11
2019-05-16T16:36:19.497Z,36.94
2019-05-16T16:41:21.954Z,36.94
2019-05-16T16:46:26.917Z,37.72
2019-05-16T16:51:27.059Z,38.03
2019-05-16T16:56:29.354Z,37.79
2019-05-16T17:01:31.837Z,37.84
2019-05-16T17:06:34.289Z,37.86
2019-05-16T17:11:37.152Z,38.32
2019-05-16T17:16:39.220Z,38.51
2019-05-16T17:21:51.186Z,39.70
2019-05-16T17:26:44.165Z,40.82
2019-05-16T17:31:53.781Z,41.52
2019-05-16T17:36:49.109Z,42.14
2019-05-16T17:41:54.834Z,42.51
2019-05-16T17:46:54.059Z,42.07
2019-05-16T17:51:56.562Z,42.31
2019-05-16T17:56:59.064Z,42.85
2019-05-16T18:02:01.553Z,43.40
2019-05-16T18:07:04.008Z,43.66
2019-05-16T18:12:06.974Z,44.25
2019-05-16T18:17:08.969Z,44.51
2019-05-16T18:22:11.453Z,44.93
2019-05-16T18:27:13.979Z,45.07
2019-05-16T18:32:17.031Z,45.21
2019-05-16T18:37:18.950Z,45.54
2019-05-16T18:42:21.436Z,45.90
2019-05-16T18:47:23.900Z,46.39
2019-05-16T18:52:26.354Z,46.63
2019-05-16T18:57:28.823Z,46.51
2019-05-16T19:02:31.291Z,47.02
2019-05-16T19:07:33.753Z,48.06
2019-05-16T19:12:37.111Z,49.01
2019-05-16T19:17:38.688Z,49.82
2019-05-16T19:22:41.152Z,50.37
2019-05-16T19:27:43.652Z,50.32
2019-05-16T19:32:46.865Z,50.99
2019-05-16T19:37:48.635Z,50.99
2019-05-16T19:42:51.119Z,51.49
2019-05-16T19:47:53.583Z,51.99
2019-05-16T19:52:56.730Z,52.38
2019-05-16T19:57:58.543Z,52.13
2019-05-16T20:03:01.029Z,52.60
2019-05-16T20:08:03.587Z,52.68
2019-05-16T20:13:07.793Z,52.87
2019-05-16T20:18:08.504Z,53.25
2019-05-16T20:23:10.982Z,53.57
2019-05-16T20:28:13.467Z,53.62
2019-05-16T20:33:17.920Z,53.67
2019-05-16T20:38:18.433Z,53.86
2019-05-16T20:43:20.892Z,53.68
2019-05-16T20:48:23.401Z,53.51
2019-05-16T20:53:27.129Z,53.16
2019-05-16T20:58:28.338Z,53.00
2019-05-16T21:03:30.932Z,52.87
2019-05-16T21:08:33.804Z,53.14
2019-05-16T21:13:36.273Z,53.42
2019-05-16T21:18:38.740Z,53.49
2019-05-16T21:23:41.222Z,53.58
2019-05-16T21:28:43.693Z,53.71
2019-05-16T21:33:47.088Z,54.09
2019-05-16T21:38:48.607Z,54.02
2019-05-16T21:43:51.075Z,54.12
2019-05-16T21:48:53.531Z,54.18
2019-05-16T21:53:56.423Z,54.51
2019-05-16T21:58:58.476Z,54.69
2019-05-16T22:04:00.927Z,54.79
2019-05-16T22:09:03.394Z,55.52
2019-05-16T22:14:06.501Z,55.71
2019-05-16T22:19:08.305Z,56.26
2019-05-16T22:24:10.798Z,56.62
2019-05-16T22:29:13.241Z,57.05
2019-05-16T22:34:16.943Z,57.11
2019-05-16T22:39:18.153Z,57.14
2019-05-16T22:44:20.626Z,57.03
2019-05-16T22:49:23.090Z,57.33
2019-05-16T22:54:26.259Z,57.23
2019-05-16T22:59:28.019Z,57.65
2019-05-16T23:04:30.528Z,57.70
2019-05-16T23:09:32.990Z,57.43
2019-05-16T23:14:35.445Z,57.49
2019-05-16T23:19:37.919Z,57.46
2019-05-16T23:24:40.397Z,57.54
2019-05-16T23:29:42.851Z,57.61
2019-05-16T23:34:46.627Z,57.59
2019-05-16T23:39:47.783Z,57.13
2019-05-16T23:44:50.242Z,57.40
2019-05-16T23:49:52.700Z,57.91
2019-05-16T23:54:56.967Z,58.32
2019-05-16T23:59:57.634Z,58.62
